Terminal Aerodrome Forecast
Issued by NWS

Home | Current Version | Previous Version | Text Only | Print | Product List | Glossary On
Versions: 1 2 3 4 5 6 7 8 9 10 11 12 13 14 15 16 17 18 19
000
FTUS41 KALY 262300
TAFPSF
TAF
KPSF 262338Z 2700/2724 01007G14KT 1/2SM SN FG VV005
      TEMPO 2702/2705 1SM -SN BR SCT005 OVC015
     FM270500 33012G18KT 1 1/2SM -SN BR OVC006
     FM270700 31010G15KT 3SM -SN BR OVC010
     FM271000 30006KT P6SM VCSH OVC025
     FM271400 30006KT P6SM VCSH OVC035=

USA.gov is the U.S. government's official web portal to all federal, state and local government web resources and services.